createdAt,value
2019-02-05T00:00:36.278Z,6.83
2019-02-05T00:03:11.183Z,4.97
2019-02-05T00:05:45.559Z,6.53
2019-02-05T00:08:19.320Z,8.63
2019-02-05T00:10:52.508Z,5.43
2019-02-05T00:13:26.250Z,6.60
2019-02-05T00:16:00.426Z,5.00
2019-02-05T00:18:33.077Z,7.33
2019-02-05T00:21:06.412Z,4.53
2019-02-05T00:23:40.371Z,5.63
2019-02-05T00:26:14.561Z,4.23
2019-02-05T00:28:48.831Z,5.00
2019-02-05T00:31:22.637Z,7.13
2019-02-05T00:33:56.636Z,5.50
2019-02-05T00:36:31.870Z,4.90
2019-02-05T00:39:08.042Z,6.63
2019-02-05T00:41:41.379Z,5.90
2019-02-05T00:44:15.426Z,10.13
2019-02-05T00:46:49.679Z,7.57
2019-02-05T00:49:23.692Z,8.27
2019-02-05T00:52:00.356Z,9.30
2019-02-05T00:54:34.752Z,9.30
2019-02-05T00:57:08.686Z,9.23
2019-02-05T00:59:43.554Z,8.57
2019-02-05T01:02:19.526Z,8.57
2019-02-05T01:04:53.904Z,8.33
2019-02-05T01:07:29.006Z,7.33
2019-02-05T01:10:03.128Z,7.73
2019-02-05T01:12:38.077Z,8.70
2019-02-05T01:15:14.189Z,8.37
2019-02-05T01:17:50.245Z,8.03
2019-02-05T01:20:24.812Z,8.70
2019-02-05T01:22:59.918Z,8.27
2019-02-05T01:25:33.423Z,8.37
2019-02-05T01:28:07.165Z,8.43
2019-02-05T01:30:43.124Z,6.87
2019-02-05T01:33:18.784Z,9.83
2019-02-05T01:35:53.117Z,7.73
2019-02-05T01:38:27.472Z,9.97
2019-02-05T01:41:02.165Z,9.50
2019-02-05T01:43:37.149Z,8.80
2019-02-05T01:46:12.053Z,9.00
2019-02-05T01:48:46.236Z,7.97
2019-02-05T01:51:21.613Z,8.10
2019-02-05T01:53:56.634Z,7.63
2019-02-05T01:56:40.471Z,9.93
2019-02-05T01:59:07.790Z,10.87
2019-02-05T02:01:42.263Z,11.00
2019-02-05T02:04:16.212Z,8.37
2019-02-05T02:06:49.945Z,10.77
2019-02-05T02:09:27.255Z,10.97
2019-02-05T02:12:02.181Z,8.93
2019-02-05T02:14:35.995Z,9.77
2019-02-05T02:17:09.688Z,11.13
2019-02-05T02:19:44.648Z,7.93
2019-02-05T02:22:19.023Z,13.27
2019-02-05T02:24:53.588Z,9.43
2019-02-05T02:27:27.966Z,9.33
2019-02-05T02:30:02.101Z,10.20
2019-02-05T02:32:36.622Z,9.63
2019-02-05T02:35:12.043Z,8.47
2019-02-05T02:37:45.295Z,10.87
2019-02-05T02:40:22.073Z,9.73
2019-02-05T02:42:56.300Z,13.53
2019-02-05T02:45:30.093Z,7.70
2019-02-05T02:48:04.232Z,8.83
2019-02-05T02:50:38.220Z,10.20
2019-02-05T02:53:12.718Z,10.20
2019-02-05T02:55:46.802Z,10.87
2019-02-05T02:58:21.666Z,9.80
2019-02-05T03:00:56.165Z,9.20
2019-02-05T03:03:30.629Z,9.63
2019-02-05T03:06:06.504Z,12.90
2019-02-05T03:08:40.244Z,10.83
2019-02-05T03:11:13.886Z,12.90
2019-02-05T03:13:47.885Z,9.37
2019-02-05T03:16:21.525Z,10.73
2019-02-05T03:18:56.455Z,9.73
2019-02-05T03:21:30.642Z,10.47
2019-02-05T03:24:04.913Z,10.77
2019-02-05T03:26:40.699Z,10.47
2019-02-05T03:29:13.961Z,10.50
2019-02-05T03:31:48.320Z,13.07
2019-02-05T03:34:22.449Z,10.87
2019-02-05T03:36:56.688Z,12.80
2019-02-05T03:39:30.148Z,10.07
2019-02-05T03:42:03.924Z,11.17
2019-02-05T03:44:38.341Z,13.23
2019-02-05T03:47:12.760Z,11.73
2019-02-05T03:49:46.592Z,12.80
2019-02-05T03:52:26.466Z,11.50
2019-02-05T03:55:42.556Z,11.13
2019-02-05T03:58:42.637Z,12.43
2019-02-05T04:01:45.634Z,10.40
2019-02-05T04:05:02.438Z,9.47
2019-02-05T04:08:11.427Z,12.27
2019-02-05T04:11:13.618Z,11.23
2019-02-05T04:14:24.685Z,12.77
2019-02-05T04:17:15.900Z,14.47
2019-02-05T04:20:23.379Z,9.77
2019-02-05T04:23:14.589Z,10.60
2019-02-05T04:26:16.452Z,11.07
2019-02-05T04:29:24.318Z,12.90
2019-02-05T04:32:37.602Z,13.23
2019-02-05T04:35:56.051Z,11.43
2019-02-05T04:39:19.795Z,11.33
2019-02-05T04:42:34.680Z,11.57
2019-02-05T04:45:44.071Z,11.77
2019-02-05T04:49:00.919Z,14.60
2019-02-05T04:52:14.813Z,12.13
2019-02-05T04:55:05.384Z,11.73
2019-02-05T04:58:20.453Z,12.13
2019-02-05T05:01:50.077Z,15.97
2019-02-05T05:05:01.285Z,11.43
2019-02-05T05:08:07.564Z,13.30
2019-02-05T05:10:44.721Z,16.27
2019-02-05T05:13:19.432Z,13.87
2019-02-05T05:15:54.205Z,13.70
2019-02-05T05:18:27.832Z,13.87
2019-02-05T05:21:03.235Z,12.53
2019-02-05T05:23:37.916Z,15.13
2019-02-05T05:26:11.575Z,17.20
2019-02-05T05:28:47.394Z,15.37
2019-02-05T05:31:21.645Z,13.93
2019-02-05T05:33:55.607Z,15.00
2019-02-05T05:36:30.724Z,15.43
2019-02-05T05:39:07.132Z,16.97
2019-02-05T05:41:41.371Z,14.77
2019-02-05T05:44:16.388Z,18.83
2019-02-05T05:46:51.185Z,15.13
2019-02-05T05:49:29.368Z,18.43
2019-02-05T05:52:04.803Z,15.23
2019-02-05T05:54:39.426Z,14.37
2019-02-05T05:57:12.844Z,17.33
2019-02-05T05:59:46.596Z,11.07
2019-02-05T06:02:21.681Z,12.63
2019-02-05T06:04:55.547Z,12.70
2019-02-05T06:07:29.412Z,15.97
2019-02-05T06:10:06.643Z,12.00
2019-02-05T06:12:38.754Z,14.40
2019-02-05T06:15:14.032Z,14.53
2019-02-05T06:17:48.580Z,12.60
2019-02-05T06:20:24.185Z,12.97
2019-02-05T06:23:01.471Z,15.60
2019-02-05T06:25:35.243Z,13.97
2019-02-05T06:28:08.700Z,14.07
2019-02-05T06:30:41.872Z,13.83
2019-02-05T06:33:16.845Z,15.40
2019-02-05T06:35:50.285Z,16.17
2019-02-05T06:38:23.964Z,12.13
2019-02-05T06:41:00.564Z,12.83
2019-02-05T06:43:38.196Z,16.33
2019-02-05T06:46:12.398Z,13.57
2019-02-05T06:48:45.973Z,12.83
2019-02-05T06:51:20.213Z,14.90
2019-02-05T06:53:52.477Z,15.53
2019-02-05T06:56:26.288Z,15.57
2019-02-05T06:58:59.441Z,16.77
2019-02-05T07:01:32.752Z,14.57
2019-02-05T07:04:07.696Z,17.83
2019-02-05T07:06:41.003Z,24.90
2019-02-05T07:09:14.692Z,23.00
2019-02-05T07:11:48.735Z,19.40
2019-02-05T07:14:21.418Z,20.23
2019-02-05T07:16:54.661Z,22.20
2019-02-05T07:19:31.386Z,19.13
2019-02-05T07:22:05.016Z,21.80
2019-02-05T07:24:37.098Z,21.10
2019-02-05T07:27:10.441Z,20.00
2019-02-05T07:29:41.899Z,20.03
2019-02-05T07:32:12.846Z,24.90
2019-02-05T07:34:44.897Z,18.27
2019-02-05T07:37:15.680Z,20.27
2019-02-05T07:39:46.255Z,22.93
2019-02-05T07:42:16.984Z,23.43
2019-02-05T07:44:47.449Z,25.03
2019-02-05T07:47:18.568Z,23.50
2019-02-05T07:49:49.124Z,27.70
2019-02-05T07:52:19.698Z,23.80
2019-02-05T07:54:50.248Z,28.70
2019-02-05T07:57:20.864Z,24.67
2019-02-05T07:59:51.480Z,21.97
2019-02-05T08:02:22.443Z,22.63
2019-02-05T08:04:53.222Z,23.83
2019-02-05T08:07:23.872Z,23.90
2019-02-05T08:09:54.490Z,25.70
2019-02-05T08:12:25.135Z,25.20
2019-02-05T08:14:55.929Z,24.40
2019-02-05T08:17:26.538Z,25.23
2019-02-05T08:19:58.338Z,20.70
2019-02-05T08:22:32.088Z,26.10
2019-02-05T08:25:01.480Z,25.60
2019-02-05T08:27:33.522Z,25.97
2019-02-05T08:30:05.280Z,24.70
2019-02-05T08:32:36.057Z,30.40
2019-02-05T08:35:07.892Z,26.47
2019-02-05T08:37:39.622Z,25.83
2019-02-05T08:40:13.663Z,24.97
2019-02-05T08:42:44.723Z,22.17
2019-02-05T08:45:20.754Z,22.63
2019-02-05T08:47:51.450Z,21.27
2019-02-05T08:50:27.430Z,20.60
2019-02-05T08:52:57.896Z,20.63
2019-02-05T08:55:30.721Z,19.77
2019-02-05T08:58:03.202Z,22.27
2019-02-05T09:00:35.797Z,21.53
2019-02-05T09:03:07.838Z,21.93
2019-02-05T09:05:39.856Z,24.33
2019-02-05T09:08:11.478Z,22.63
2019-02-05T09:10:44.335Z,19.93
2019-02-05T09:13:16.829Z,21.83
2019-02-05T09:15:49.269Z,23.83
2019-02-05T09:18:19.928Z,23.10
2019-02-05T09:20:50.500Z,22.80
2019-02-05T09:23:21.058Z,19.97
2019-02-05T09:25:51.858Z,21.33
2019-02-05T09:28:22.730Z,20.00
2019-02-05T09:30:53.606Z,20.77
2019-02-05T09:33:24.157Z,22.97
2019-02-05T09:35:54.930Z,23.00
2019-02-05T09:38:25.537Z,22.87
2019-02-05T09:40:56.262Z,22.07
2019-02-05T09:43:26.918Z,21.90
2019-02-05T09:45:57.538Z,18.07
2019-02-05T09:48:28.076Z,22.17
2019-02-05T09:50:58.763Z,21.47
2019-02-05T09:53:29.432Z,20.77
2019-02-05T09:56:00.631Z,26.03
2019-02-05T09:58:31.351Z,22.27
2019-02-05T10:01:02.037Z,22.73
2019-02-05T10:03:32.597Z,23.27
2019-02-05T10:06:03.358Z,24.63
2019-02-05T10:08:35.765Z,22.37
2019-02-05T10:11:08.714Z,29.67
2019-02-05T10:13:42.010Z,26.57
2019-02-05T10:16:15.208Z,20.13
2019-02-05T10:18:47.011Z,21.03
2019-02-05T10:21:18.483Z,23.80
2019-02-05T10:23:52.390Z,22.40
2019-02-05T10:26:25.342Z,24.33
2019-02-05T10:28:57.850Z,22.30
2019-02-05T10:31:29.731Z,23.77
2019-02-05T10:34:00.517Z,21.93
2019-02-05T10:36:31.511Z,26.30
2019-02-05T10:39:02.649Z,28.20
2019-02-05T10:41:35.641Z,24.03
2019-02-05T10:44:10.007Z,26.53
2019-02-05T10:46:43.471Z,24.60
2019-02-05T10:49:14.913Z,23.43
2019-02-05T10:51:46.381Z,25.23
2019-02-05T10:54:17.213Z,24.23
2019-02-05T10:56:48.793Z,27.40
2019-02-05T10:59:21.588Z,22.80
2019-02-05T11:01:53.710Z,24.53
2019-02-05T11:04:27.680Z,23.37
2019-02-05T11:06:59.014Z,23.87
2019-02-05T11:09:29.719Z,22.23
2019-02-05T11:12:00.699Z,24.70
2019-02-05T11:14:31.503Z,23.70
2019-02-05T11:17:02.497Z,22.43
2019-02-05T11:19:33.249Z,24.40
2019-02-05T11:22:06.045Z,22.67
2019-02-05T11:24:36.639Z,23.73
2019-02-05T11:27:07.313Z,24.20
2019-02-05T11:29:37.953Z,26.03
2019-02-05T11:32:08.760Z,20.60
2019-02-05T11:34:39.468Z,24.97
2019-02-05T11:37:10.120Z,22.73
2019-02-05T11:39:40.712Z,23.83
2019-02-05T11:42:12.884Z,25.20
2019-02-05T11:44:44.562Z,24.97
2019-02-05T11:47:15.173Z,24.47
2019-02-05T11:49:45.817Z,20.70
2019-02-05T11:52:16.401Z,21.27
2019-02-05T11:54:47.199Z,21.87
2019-02-05T11:57:17.994Z,20.60
2019-02-05T11:59:49.135Z,23.57
2019-02-05T12:02:19.677Z,21.67
2019-02-05T12:04:50.498Z,20.93
2019-02-05T12:07:22.620Z,21.63
2019-02-05T12:09:53.666Z,21.80
2019-02-05T12:12:25.792Z,20.87
2019-02-05T12:14:57.220Z,22.07
2019-02-05T12:17:27.884Z,25.07
2019-02-05T12:19:59.559Z,20.97
2019-02-05T12:22:30.812Z,21.30
2019-02-05T12:25:01.585Z,21.10
2019-02-05T12:27:32.252Z,23.40
2019-02-05T12:30:03.202Z,20.57
2019-02-05T12:32:34.252Z,21.60
2019-02-05T12:35:05.937Z,23.30
2019-02-05T12:37:36.917Z,21.83
2019-02-05T12:40:09.550Z,23.50
2019-02-05T12:42:40.422Z,21.33
2019-02-05T12:45:13.661Z,23.10
2019-02-05T12:47:44.445Z,21.70
2019-02-05T12:50:20.576Z,23.43
2019-02-05T12:52:51.745Z,24.97
2019-02-05T12:55:22.939Z,22.07
2019-02-05T12:57:53.943Z,21.57
2019-02-05T13:00:58.865Z,21.03
2019-02-05T13:03:22.411Z,23.43
2019-02-05T13:05:53.290Z,22.50
2019-02-05T13:08:24.241Z,19.70
2019-02-05T13:10:55.311Z,24.53
2019-02-05T13:13:26.790Z,22.07
2019-02-05T13:15:58.208Z,22.93
2019-02-05T13:18:28.819Z,21.17
2019-02-05T13:21:02.365Z,24.90
2019-02-05T13:23:34.091Z,24.27
2019-02-05T13:26:07.404Z,20.37
2019-02-05T13:28:40.367Z,22.63
2019-02-05T13:31:13.231Z,21.87
2019-02-05T13:33:45.444Z,23.57
2019-02-05T13:36:18.059Z,22.50
2019-02-05T13:38:50.129Z,23.90
2019-02-05T13:41:22.365Z,25.13
2019-02-05T13:43:54.736Z,20.23
2019-02-05T13:46:26.314Z,21.40
2019-02-05T13:48:57.908Z,24.83
2019-02-05T13:51:30.194Z,19.67
2019-02-05T13:54:02.527Z,22.30
2019-02-05T13:56:34.437Z,20.67
2019-02-05T13:59:06.924Z,22.40
2019-02-05T14:01:38.802Z,19.33
2019-02-05T14:04:10.630Z,22.07
2019-02-05T14:06:42.837Z,20.97
2019-02-05T14:09:15.306Z,20.23
2019-02-05T14:11:47.073Z,22.83
2019-02-05T14:14:20.407Z,23.03
2019-02-05T14:16:52.218Z,21.23
2019-02-05T14:19:24.108Z,20.60
2019-02-05T14:21:56.295Z,20.73
2019-02-05T14:24:28.364Z,21.57
2019-02-05T14:27:00.422Z,19.60
2019-02-05T14:29:32.867Z,19.07
2019-02-05T14:32:08.252Z,21.93
2019-02-05T14:34:40.124Z,18.77
2019-02-05T14:37:12.075Z,20.00
2019-02-05T14:39:44.234Z,18.03
2019-02-05T14:42:16.672Z,16.83
2019-02-05T14:44:48.607Z,21.97
2019-02-05T14:47:20.717Z,18.63
2019-02-05T14:49:53.874Z,18.70
2019-02-05T14:52:25.747Z,21.50
2019-02-05T14:54:58.297Z,17.23
2019-02-05T14:57:30.581Z,19.00
2019-02-05T15:00:02.300Z,18.10
2019-02-05T15:02:35.890Z,23.03
2019-02-05T15:05:09.411Z,18.60
2019-02-05T15:07:41.344Z,19.17
2019-02-05T15:10:13.886Z,18.90
2019-02-05T15:12:46.390Z,21.47
2019-02-05T15:15:19.483Z,20.27
2019-02-05T15:17:53.899Z,18.47
2019-02-05T15:20:28.399Z,18.17
2019-02-05T15:23:00.433Z,15.93
2019-02-05T15:25:34.657Z,15.67
2019-02-05T15:28:08.516Z,16.87
2019-02-05T15:30:42.001Z,17.47
2019-02-05T15:33:41.916Z,14.17
2019-02-05T15:36:25.518Z,15.17
2019-02-05T15:38:57.142Z,15.27
2019-02-05T15:41:28.926Z,14.97
2019-02-05T15:44:00.878Z,15.90
2019-02-05T15:46:36.454Z,15.23
2019-02-05T15:49:09.558Z,15.23
2019-02-05T15:51:41.505Z,14.37
2019-02-05T15:54:14.256Z,17.17
2019-02-05T15:56:46.658Z,14.57
2019-02-05T15:59:19.191Z,13.87
2019-02-05T16:01:51.745Z,17.70
2019-02-05T16:04:30.052Z,14.77
2019-02-05T16:07:03.574Z,15.87
2019-02-05T16:09:35.661Z,16.57
2019-02-05T16:12:08.033Z,15.10
2019-02-05T16:14:40.234Z,15.27
2019-02-05T16:17:14.199Z,17.43
2019-02-05T16:19:46.242Z,16.70
2019-02-05T16:22:18.874Z,17.87
2019-02-05T16:24:50.884Z,18.13
2019-02-05T16:27:23.401Z,18.43
2019-02-05T16:29:55.463Z,19.73
2019-02-05T16:32:29.499Z,19.07
2019-02-05T16:35:03.043Z,20.67
2019-02-05T16:37:35.304Z,21.17
2019-02-05T16:40:13.905Z,36.53
2019-02-05T16:42:46.350Z,31.60
2019-02-05T16:45:21.709Z,20.70
2019-02-05T16:47:55.467Z,21.10
2019-02-05T16:50:30.333Z,21.03
2019-02-05T16:53:05.178Z,20.47
2019-02-05T16:55:38.587Z,22.20
2019-02-05T16:58:11.425Z,22.60
2019-02-05T17:00:43.555Z,21.00
2019-02-05T17:03:15.904Z,21.87
2019-02-05T17:05:47.903Z,18.70
2019-02-05T17:08:19.772Z,22.70
2019-02-05T17:10:53.569Z,20.73
2019-02-05T17:13:25.619Z,19.93
2019-02-05T17:15:59.582Z,19.20
2019-02-05T17:18:32.624Z,21.90
2019-02-05T17:21:05.029Z,22.20
2019-02-05T17:23:38.632Z,18.57
2019-02-05T17:26:12.207Z,20.03
2019-02-05T17:28:45.954Z,20.60
2019-02-05T17:31:18.698Z,20.17
2019-02-05T17:33:52.119Z,22.13
2019-02-05T17:36:24.643Z,23.40
2019-02-05T17:38:58.058Z,20.30
2019-02-05T17:41:29.802Z,24.57
2019-02-05T17:44:02.122Z,22.90
2019-02-05T17:46:34.892Z,20.87
2019-02-05T17:49:08.766Z,26.10
2019-02-05T17:51:41.644Z,23.40
2019-02-05T17:54:15.113Z,24.60
2019-02-05T17:56:46.531Z,25.83
2019-02-05T17:59:18.670Z,23.57
2019-02-05T18:01:49.972Z,26.67
2019-02-05T18:04:22.963Z,26.37
2019-02-05T18:06:54.027Z,24.97
2019-02-05T18:09:25.234Z,25.00
2019-02-05T18:11:56.627Z,21.50
2019-02-05T18:14:27.548Z,22.93
2019-02-05T18:16:58.316Z,23.20
2019-02-05T18:19:29.718Z,22.17
2019-02-05T18:22:00.934Z,21.13
2019-02-05T18:24:31.661Z,21.27
2019-02-05T18:27:02.359Z,18.63
2019-02-05T18:29:34.387Z,22.50
2019-02-05T18:32:06.013Z,19.63
2019-02-05T18:34:36.617Z,20.70
2019-02-05T18:37:07.997Z,20.30
2019-02-05T18:39:40.164Z,21.43
2019-02-05T18:42:11.790Z,21.83
2019-02-05T18:44:42.920Z,19.30
2019-02-05T18:47:14.481Z,21.57
2019-02-05T18:49:45.400Z,19.57
2019-02-05T18:52:18.231Z,18.80
2019-02-05T18:54:49.889Z,20.17
2019-02-05T18:57:22.185Z,18.43
2019-02-05T19:00:09.329Z,19.00
2019-02-05T19:02:42.270Z,18.70
2019-02-05T19:05:17.221Z,19.43
2019-02-05T19:07:51.175Z,23.53
2019-02-05T19:10:30.612Z,20.37
2019-02-05T19:13:01.700Z,19.67
2019-02-05T19:15:38.510Z,19.37
2019-02-05T19:18:10.238Z,20.70
2019-02-05T19:20:41.033Z,18.17
2019-02-05T19:23:11.885Z,18.97
2019-02-05T19:26:01.521Z,18.60
2019-02-05T19:28:37.309Z,19.33
2019-02-05T19:31:28.686Z,20.03
2019-02-05T19:33:59.996Z,19.00
2019-02-05T19:36:34.363Z,20.40
2019-02-05T19:39:08.375Z,19.40
2019-02-05T19:41:40.148Z,17.67
2019-02-05T19:44:19.715Z,19.83
2019-02-05T19:47:06.447Z,19.87
2019-02-05T19:49:41.553Z,22.83
2019-02-05T19:52:15.501Z,20.67
2019-02-05T19:54:48.563Z,20.40
2019-02-05T19:57:21.542Z,21.40
2019-02-05T19:59:55.589Z,21.33
2019-02-05T20:02:28.683Z,19.50
2019-02-05T20:05:02.405Z,21.73
2019-02-05T20:07:37.732Z,20.00
2019-02-05T20:10:13.462Z,19.97
2019-02-05T20:12:46.589Z,19.60
2019-02-05T20:15:19.904Z,18.57
2019-02-05T20:17:53.704Z,18.60
2019-02-05T20:20:27.853Z,18.30
2019-02-05T20:23:08.922Z,19.43
2019-02-05T20:25:42.782Z,15.17
2019-02-05T20:28:16.276Z,20.20
2019-02-05T20:30:48.985Z,19.20
2019-02-05T20:33:21.659Z,20.43
2019-02-05T20:35:54.465Z,18.27
2019-02-05T20:38:29.286Z,17.70
2019-02-05T20:41:02.382Z,19.53
2019-02-05T20:43:35.790Z,19.40
2019-02-05T20:46:08.699Z,20.77
2019-02-05T20:48:43.517Z,23.23
2019-02-05T20:51:17.355Z,22.77
2019-02-05T20:53:50.941Z,19.73
2019-02-05T20:56:23.658Z,20.23
2019-02-05T20:58:56.848Z,24.17
2019-02-05T21:01:29.606Z,22.30
2019-02-05T21:04:03.208Z,21.93
2019-02-05T21:06:38.019Z,22.23
2019-02-05T21:09:23.242Z,21.47
2019-02-05T21:11:58.843Z,22.33
2019-02-05T21:14:32.441Z,21.23
2019-02-05T21:17:07.726Z,20.77
2019-02-05T21:19:43.966Z,21.13
2019-02-05T21:22:17.400Z,22.00
2019-02-05T21:24:50.306Z,21.57
2019-02-05T21:27:29.102Z,22.53
2019-02-05T21:30:02.188Z,23.63
2019-02-05T21:32:36.458Z,21.67
2019-02-05T21:35:10.961Z,21.00
2019-02-05T21:37:45.060Z,23.97
2019-02-05T21:40:24.750Z,27.00
2019-02-05T21:42:57.464Z,25.80
2019-02-05T21:45:31.204Z,21.17
2019-02-05T21:48:04.411Z,22.87
2019-02-05T21:50:36.662Z,24.00
2019-02-05T21:53:11.777Z,22.07
2019-02-05T21:55:44.156Z,22.07
2019-02-05T21:58:18.336Z,24.47
2019-02-05T22:00:50.866Z,25.43
2019-02-05T22:03:27.682Z,26.13
2019-02-05T22:06:06.187Z,22.37
2019-02-05T22:08:40.584Z,23.10
2019-02-05T22:11:12.765Z,28.70
2019-02-05T22:13:47.025Z,20.13
2019-02-05T22:16:19.787Z,22.33
2019-02-05T22:18:52.020Z,21.53
2019-02-05T22:21:25.237Z,25.33
2019-02-05T22:23:57.170Z,25.83
2019-02-05T22:26:30.157Z,31.27
2019-02-05T22:29:03.553Z,26.60
2019-02-05T22:31:37.460Z,25.90
2019-02-05T22:34:09.876Z,27.13
2019-02-05T22:36:41.844Z,26.60
2019-02-05T22:39:13.944Z,26.77
2019-02-05T22:41:47.813Z,27.83
2019-02-05T22:44:20.859Z,26.93
2019-02-05T22:46:53.866Z,30.13
2019-02-05T22:49:26.018Z,27.53
2019-02-05T22:51:58.477Z,24.83
2019-02-05T22:54:31.197Z,25.53
2019-02-05T22:57:03.473Z,23.87
2019-02-05T22:59:37.918Z,31.77
2019-02-05T23:02:11.216Z,27.80
2019-02-05T23:05:21.880Z,24.80
2019-02-05T23:07:56.183Z,29.00
2019-02-05T23:11:14.528Z,29.03
2019-02-05T23:13:49.496Z,33.33
2019-02-05T23:16:23.850Z,28.47
2019-02-05T23:18:57.223Z,29.27
2019-02-05T23:21:32.547Z,29.47
2019-02-05T23:24:08.463Z,31.20
2019-02-05T23:26:43.008Z,27.50
2019-02-05T23:29:17.489Z,26.47
2019-02-05T23:31:52.983Z,30.60
2019-02-05T23:34:27.162Z,28.93
2019-02-05T23:37:01.029Z,30.13
2019-02-05T23:39:35.713Z,26.60
2019-02-05T23:42:09.756Z,31.23
2019-02-05T23:44:44.035Z,26.03
2019-02-05T23:47:18.553Z,25.10
2019-02-05T23:49:52.964Z,23.90
2019-02-05T23:52:27.469Z,20.60
2019-02-05T23:55:01.912Z,21.37
2019-02-05T23:57:35.672Z,20.47
